Teruhou Maru No.22 — JD3202 — position and weather

sailwx.info

Track history (hours):
 
Tides and Currents Weather Stations Pressure Air Temp Water Temp Dewpoint Dewpoint Depression Visibility Wind Speed Wind Dir Waves Ship Positions

Teruhou Maru No.22

Last reported at 2015-May-04 04:07 UTC. Time now 2015-May-04 09:01 UTC.
Position N 34°60' E 139°28'.

Length 76 m; draft 4 m.

Type: Cargo ship. MMSI: 431002552.

Date/timePositionNaut miles runAvg speedWind from/ knotsBaromVisibWave heightAir tempDewpointWater temp
2015-May-04 04:07N 34°60' E 139°28'610.8
2015-May-04 03:33N 35°03' E 139°34'1111.3
2015-May-04 02:33N 35°10' E 139°44'1010.5
2015-May-04 01:33N 35°21' E 139°42'7 6.6
2015-May-04 00:33N 35°22' E 139°50'1 0.7
2015-May-03 23:33N 35°22' E 139°51'0 0.0
2015-May-03 22:33N 35°22' E 139°51'0 0.0
2015-May-03 21:32N 35°22' E 139°51'0 0.0
2015-May-03 20:33N 35°22' E 139°51'0 0.0
2015-May-03 19:33N 35°22' E 139°51'1 1.1
2015-May-03 18:33N 35°22' E 139°50'0 0.0
2015-May-03 17:33N 35°22' E 139°50'0 0.0
2015-May-03 16:33N 35°22' E 139°50'0 0.0
2015-May-03 15:33N 35°22' E 139°50'0 0.0
2015-May-03 14:33N 35°22' E 139°50'0 0.0
2015-May-03 13:34N 35°22' E 139°50'0 0.0
2015-May-03 12:33N 35°22' E 139°50'0 0.0
2015-May-03 11:33N 35°22' E 139°50'0 0.0
2015-May-03 10:33N 35°22' E 139°50'0 0.0
2015-May-03 09:33N 35°22' E 139°50'0 0.0
2015-May-03 08:33N 35°22' E 139°50'0 0.0
2015-May-03 07:33N 35°22' E 139°50'0 0.0
2015-May-03 06:33N 35°22' E 139°50'0 0.0
2015-May-03 05:33N 35°22' E 139°50'0 0.0
2015-May-03 04:33N 35°22' E 139°50'0 0.0
2015-May-03 03:32N 35°22' E 139°50'0 0.0
2015-May-03 02:33N 35°22' E 139°50'0 0.0
2015-May-03 01:33N 35°22' E 139°50'0 0.0
2015-May-03 00:33N 35°22' E 139°50'0 0.1
2015-May-02 23:33N 35°22' E 139°50'7 7.3
2015-May-02 22:33N 35°23' E 139°41'1 0.0
2015-May-01 08:33N 35°24' E 139°40'0 0.0
2015-May-01 07:33N 35°24' E 139°40'0 0.0
2015-May-01 06:33N 35°24' E 139°40'0 0.0
2015-May-01 05:33N 35°24' E 139°40'0 0.0
2015-May-01 04:33N 35°24' E 139°40'0 0.0
2015-May-01 03:33N 35°24' E 139°40'0 0.0
2015-May-01 02:33N 35°24' E 139°40'0 0.0
2015-May-01 01:33N 35°24' E 139°40'0 0.0
2015-May-01 00:33N 35°24' E 139°40'0 0.0
2015-Apr-30 23:33N 35°24' E 139°40'0 0.0
2015-Apr-30 22:33N 35°24' E 139°40'0 0.0
2015-Apr-30 21:33N 35°24' E 139°40'0 0.0
2015-Apr-30 20:33N 35°24' E 139°40'0 0.0
2015-Apr-30 19:33N 35°24' E 139°40'0 0.0
2015-Apr-30 18:33N 35°24' E 139°40'0 0.0
2015-Apr-30 17:33N 35°24' E 139°40'0 0.0
2015-Apr-30 16:33N 35°24' E 139°40'0 0.0
2015-Apr-30 15:33N 35°24' E 139°40'0 0.0
2015-Apr-30 14:33N 35°24' E 139°40'0 0.0
2015-Apr-30 13:33N 35°24' E 139°40'0 0.0
2015-Apr-30 12:33N 35°24' E 139°40'0 0.0
2015-Apr-30 11:33N 35°24' E 139°40'0 0.0
2015-Apr-30 10:33N 35°24' E 139°40'0 0.0
2015-Apr-30 09:33N 35°24' E 139°40'0 0.0
2015-Apr-30 08:33N 35°24' E 139°40'0 0.0
2015-Apr-30 07:33N 35°24' E 139°40'0 0.0
2015-Apr-30 06:33N 35°24' E 139°40'0 0.0
2015-Apr-30 05:33N 35°24' E 139°40'0 0.0
2015-Apr-30 04:33N 35°24' E 139°40'0 0.0
2015-Apr-30 03:33N 35°24' E 139°40'0 0.0
2015-Apr-30 02:33N 35°24' E 139°40'8 7.6
2015-Apr-30 01:33N 35°18' E 139°45'1111.2
2015-Apr-30 00:33N 35°06' E 139°45'16 8.2
2015-Apr-29 22:33N 34°54' E 139°58'1311.8
2015-Apr-29 21:26N 35°01' E 140°12'63 8.8
2015-Apr-29 14:19N 35°58' E 140°43'3 4.4
2015-Apr-29 13:32N 35°56' E 140°40'0 0.0
2015-Apr-29 05:33N 35°56' E 140°40'0 0.1
2015-Apr-29 04:33N 35°56' E 140°40'0 0.0
2015-Apr-29 03:30N 35°56' E 140°40'0 0.0
2015-Apr-29 02:32N 35°56' E 140°40'0 0.0
2015-Apr-29 01:33N 35°56' E 140°40'0 0.0
2015-Apr-29 00:33N 35°56' E 140°40'0 0.0
2015-Apr-28 23:33N 35°56' E 140°40'0 0.2
2015-Apr-28 22:22N 35°56' E 140°40'0 0.0
2015-Apr-28 21:32N 35°56' E 140°40'0 0.0
2015-Apr-28 20:33N 35°56' E 140°40'0 0.0
2015-Apr-28 19:33N 35°56' E 140°40'0 0.0
2015-Apr-28 18:32N 35°56' E 140°40'0 0.0
2015-Apr-28 17:17N 35°56' E 140°40'0 0.0
2015-Apr-28 16:34N 35°56' E 140°40'0 0.0
2015-Apr-28 15:32N 35°56' E 140°40'0 0.0
2015-Apr-28 14:33N 35°56' E 140°40'0 0.0
2015-Apr-28 12:05N 35°56' E 140°40'4 4.6
2015-Apr-28 11:14N 35°58' E 140°44'6 7.6
2015-Apr-28 10:29N 35°53' E 140°48'8111.0
2015-Apr-28 03:07N 34°52' E 139°43'  
Track history (hours):
 
Tides and Currents Weather Stations Pressure Air Temp Water Temp Dewpoint Dewpoint Depression Visibility Wind Speed Wind Dir Waves Ship Positions

Teruhou Maru No.22

Last reported at 2015-May-04 04:07 UTC. Time now 2015-May-04 09:01 UTC.
Position N 34°60' E 139°28'.

Length 76 m; draft 4 m.

Type: Cargo ship. MMSI: 431002552.

Date/timePositionNaut miles runAvg speedWind from/ knotsBaromVisibWave heightAir tempDewpointWater temp
2015-May-04 04:07N 34°60' E 139°28'610.8
2015-May-04 03:33N 35°03' E 139°34'1111.3
2015-May-04 02:33N 35°10' E 139°44'1010.5
2015-May-04 01:33N 35°21' E 139°42'7 6.6
2015-May-04 00:33N 35°22' E 139°50'1 0.7
2015-May-03 23:33N 35°22' E 139°51'0 0.0
2015-May-03 22:33N 35°22' E 139°51'0 0.0
2015-May-03 21:32N 35°22' E 139°51'0 0.0
2015-May-03 20:33N 35°22' E 139°51'0 0.0
2015-May-03 19:33N 35°22' E 139°51'1 1.1
2015-May-03 18:33N 35°22' E 139°50'0 0.0
2015-May-03 17:33N 35°22' E 139°50'0 0.0
2015-May-03 16:33N 35°22' E 139°50'0 0.0
2015-May-03 15:33N 35°22' E 139°50'0 0.0
2015-May-03 14:33N 35°22' E 139°50'0 0.0
2015-May-03 13:34N 35°22' E 139°50'0 0.0
2015-May-03 12:33N 35°22' E 139°50'0 0.0
2015-May-03 11:33N 35°22' E 139°50'0 0.0
2015-May-03 10:33N 35°22' E 139°50'0 0.0
2015-May-03 09:33N 35°22' E 139°50'0 0.0
2015-May-03 08:33N 35°22' E 139°50'0 0.0
2015-May-03 07:33N 35°22' E 139°50'0 0.0
2015-May-03 06:33N 35°22' E 139°50'0 0.0
2015-May-03 05:33N 35°22' E 139°50'0 0.0
2015-May-03 04:33N 35°22' E 139°50'0 0.0
2015-May-03 03:32N 35°22' E 139°50'0 0.0
2015-May-03 02:33N 35°22' E 139°50'0 0.0
2015-May-03 01:33N 35°22' E 139°50'0 0.0
2015-May-03 00:33N 35°22' E 139°50'0 0.1
2015-May-02 23:33N 35°22' E 139°50'7 7.3
2015-May-02 22:33N 35°23' E 139°41'1 0.0
2015-May-01 08:33N 35°24' E 139°40'0 0.0
2015-May-01 07:33N 35°24' E 139°40'0 0.0
2015-May-01 06:33N 35°24' E 139°40'0 0.0
2015-May-01 05:33N 35°24' E 139°40'0 0.0
2015-May-01 04:33N 35°24' E 139°40'0 0.0
2015-May-01 03:33N 35°24' E 139°40'0 0.0
2015-May-01 02:33N 35°24' E 139°40'0 0.0
2015-May-01 01:33N 35°24' E 139°40'0 0.0
2015-May-01 00:33N 35°24' E 139°40'0 0.0
2015-Apr-30 23:33N 35°24' E 139°40'0 0.0
2015-Apr-30 22:33N 35°24' E 139°40'0 0.0
2015-Apr-30 21:33N 35°24' E 139°40'0 0.0
2015-Apr-30 20:33N 35°24' E 139°40'0 0.0
2015-Apr-30 19:33N 35°24' E 139°40'0 0.0
2015-Apr-30 18:33N 35°24' E 139°40'0 0.0
2015-Apr-30 17:33N 35°24' E 139°40'0 0.0
2015-Apr-30 16:33N 35°24' E 139°40'0 0.0
2015-Apr-30 15:33N 35°24' E 139°40'0 0.0
2015-Apr-30 14:33N 35°24' E 139°40'0 0.0
2015-Apr-30 13:33N 35°24' E 139°40'0 0.0
2015-Apr-30 12:33N 35°24' E 139°40'0 0.0
2015-Apr-30 11:33N 35°24' E 139°40'0 0.0
2015-Apr-30 10:33N 35°24' E 139°40'0 0.0
2015-Apr-30 09:33N 35°24' E 139°40'0 0.0
2015-Apr-30 08:33N 35°24' E 139°40'0 0.0
2015-Apr-30 07:33N 35°24' E 139°40'0 0.0
2015-Apr-30 06:33N 35°24' E 139°40'0 0.0
2015-Apr-30 05:33N 35°24' E 139°40'0 0.0
2015-Apr-30 04:33N 35°24' E 139°40'0 0.0
2015-Apr-30 03:33N 35°24' E 139°40'0 0.0
2015-Apr-30 02:33N 35°24' E 139°40'8 7.6
2015-Apr-30 01:33N 35°18' E 139°45'1111.2
2015-Apr-30 00:33N 35°06' E 139°45'16 8.2
2015-Apr-29 22:33N 34°54' E 139°58'1311.8
2015-Apr-29 21:26N 35°01' E 140°12'63 8.8
2015-Apr-29 14:19N 35°58' E 140°43'3 4.4
2015-Apr-29 13:32N 35°56' E 140°40'0 0.0
2015-Apr-29 05:33N 35°56' E 140°40'0 0.1
2015-Apr-29 04:33N 35°56' E 140°40'0 0.0
2015-Apr-29 03:30N 35°56' E 140°40'0 0.0
2015-Apr-29 02:32N 35°56' E 140°40'0 0.0
2015-Apr-29 01:33N 35°56' E 140°40'0 0.0
2015-Apr-29 00:33N 35°56' E 140°40'0 0.0
2015-Apr-28 23:33N 35°56' E 140°40'0 0.2
2015-Apr-28 22:22N 35°56' E 140°40'0 0.0
2015-Apr-28 21:32N 35°56' E 140°40'0 0.0
2015-Apr-28 20:33N 35°56' E 140°40'0 0.0
2015-Apr-28 19:33N 35°56' E 140°40'0 0.0
2015-Apr-28 18:32N 35°56' E 140°40'0 0.0
2015-Apr-28 17:17N 35°56' E 140°40'0 0.0
2015-Apr-28 16:34N 35°56' E 140°40'0 0.0
2015-Apr-28 15:32N 35°56' E 140°40'0 0.0
2015-Apr-28 14:33N 35°56' E 140°40'0 0.0
2015-Apr-28 12:05N 35°56' E 140°40'4 4.6
2015-Apr-28 11:14N 35°58' E 140°44'6 7.6
2015-Apr-28 10:29N 35°53' E 140°48'8111.0
2015-Apr-28 03:07N 34°52' E 139°43'  

Dump ship's entire track history